Terminal Aerodrome Forecast
Issued by NWS St Louis, MO

Home | Current Version | Previous Version | Text Only | Print | Product List | Glossary On
Versions: 1 2 3 4 5 6 7 8 9 10 11 12 13 14 15 16 17 18 19 20 21 22
540
FTUS43 KLSX 221328 AAA
TAFSTL
TAF AMD
KSTL 221328Z 2213/2318 25011KT P6SM SCT120
     FM221400 04012G20KT P6SM SCT120
     FM221900 25010KT P6SM SCT120
     FM230300 26005KT P6SM VCTS SCT200CB
     FM230600 26004KT P6SM BKN200
     FM231200 32004KT P6SM BKN140=

USA.gov is the U.S. government's official web portal to all federal, state and local government web resources and services.